TFM - Tactical Decision Aid (Experimental) INFO Settings
ID: Runway Winds: CIG/VIS Threshold: METAR Board: Map:

KAGS - Augusta Rgnl

Updated at: 1937 UTC 18 Feb 2018
Latest TAF at: 1931 UTC 18 Feb 2018

TAF Board

Time1853Z18/20Z18/21Z18/22Z18/23Z19/00Z19/01Z19/02Z19/03Z19/04Z19/05Z19/06Z19/07Z19/08Z
TypeOBSPRVLPRVLPRVLPRVLPRVLPRVLPRVLPRVLPRVLPRVLPRVLPRVLPRVL
VIS10>6>6>6>6>6>6>6>666666
CIG55453535353535252577777
CoverOVCBKNOVCOVCOVCOVCOVCOVCOVCOVCOVCOVCOVCOVC
FltCatVFRVFRVFRVFRVFRVFRVFRMVFRMVFRIFRIFRIFRIFRIFR
WX----VCSHVCSHVCSHVCSHVCSH----BRBRBRBRBR
WDir9080909090909090907070707070
WSpd77777773333333
WGst----------------------------
TAF
KAGS 181931Z 1820/1918 08007KT P6SM BKN045
  FM182100 09007KT P6SM VCSH OVC035
  FM190200 09003KT P6SM OVC025
  FM190400 07003KT 6SM BR OVC007
  FM191100 07003KT 2SM BR OVC004
  TEMPO 1911/1913 3/4SM BR OVC003
  FM191400 07003KT 4SM BR OVC005


METAR
KAGS 181853Z 09007KT 060V130 10SM OVC055 21/09 A3025 RMK AO2 SLP243 T02110094

TAF/METAR Board Legend

Potential Impact
  None Marginal Slight Moderate High
Visibility (sm) >5 3≤X≤5 2≤X<3 0.5≤X<2 <0.5
Ceiling (100 ft) >30 10≤X≤30 7≤X<10 2≤X<7 <2
Wind Speed (kt) <10 10≤X<20 20≤X<30 ≥30
Wind Gust (kt) <15 15≤X<25 25≤X<35 ≥35
Weather No Wx Reported VCTS -TS,-FZRA TS,FZRA +TS,+FZRA